createdAt,value
2023-02-24T00:00:14.937Z,6
2023-02-24T00:05:51.295Z,5.9
2023-02-24T00:11:26.277Z,5.9
2023-02-24T00:17:02.832Z,5.9
2023-02-24T00:22:38.970Z,5.9
2023-02-24T00:28:14.097Z,5.9
2023-02-24T00:33:49.790Z,5.8
2023-02-24T00:39:24.709Z,5.9
2023-02-24T00:45:00.124Z,5.9
2023-02-24T00:50:36.160Z,5.8
2023-02-24T00:56:10.958Z,5.7
2023-02-24T01:01:47.760Z,5.8
2023-02-24T01:07:24.594Z,5.8
2023-02-24T01:12:59.767Z,5.8
2023-02-24T01:18:34.712Z,5.8
2023-02-24T01:24:11.325Z,5.7
2023-02-24T01:29:46.277Z,5.7
2023-02-24T01:35:21.409Z,5.8
2023-02-24T01:40:57.613Z,5.8
2023-02-24T01:46:32.517Z,5.9
2023-02-24T01:52:08.993Z,5.8
2023-02-24T01:57:44.414Z,5.8
2023-02-24T02:03:19.416Z,5.7
2023-02-24T02:08:55.085Z,5.6
2023-02-24T02:14:30.329Z,5.5
2023-02-24T02:20:05.214Z,5.5
2023-02-24T02:25:40.650Z,5.6
2023-02-24T02:31:16.216Z,5.6
2023-02-24T02:37:02.126Z,5.7
2023-02-24T02:42:37.801Z,5.7
2023-02-24T02:48:14.744Z,5.7
2023-02-24T02:53:50.065Z,5.6
2023-02-24T02:59:25.971Z,5.5
2023-02-24T03:05:01.972Z,5.5
2023-02-24T03:10:41.021Z,5.4
2023-02-24T03:16:16.194Z,5.5
2023-02-24T03:21:52.415Z,5.5
2023-02-24T03:27:27.993Z,5.5
2023-02-24T03:33:03.185Z,5.6
2023-02-24T03:38:38.204Z,5.6
2023-02-24T03:44:15.062Z,5.7
2023-02-24T03:49:51.073Z,5.7
2023-02-24T03:55:26.546Z,5.7
2023-02-24T04:01:01.440Z,5.8
2023-02-24T04:06:36.557Z,5.7
2023-02-24T04:12:14.444Z,5.8
2023-02-24T04:17:50.523Z,5.9
2023-02-24T04:23:26.729Z,5.9
2023-02-24T04:29:03.249Z,5.9
2023-02-24T04:34:38.824Z,5.8
2023-02-24T04:40:13.870Z,5.8
2023-02-24T04:45:49.149Z,5.7
2023-02-24T04:51:24.654Z,5.7
2023-02-24T04:57:00.051Z,5.6
2023-02-24T05:02:35.319Z,5.5
2023-02-24T05:08:10.730Z,5.4
2023-02-24T05:13:46.283Z,5.4
2023-02-24T05:19:23.650Z,5.3
2023-02-24T05:24:59.788Z,5.3
2023-02-24T05:30:34.819Z,5.2
2023-02-24T05:36:11.880Z,5.1
2023-02-24T05:41:47.199Z,5.1
2023-02-24T05:47:22.074Z,5.1
2023-02-24T05:52:57.777Z,5
2023-02-24T05:58:33.432Z,5
2023-02-24T06:04:09.347Z,5
2023-02-24T06:09:44.990Z,5
2023-02-24T06:15:20.472Z,5
2023-02-24T06:20:55.453Z,5.1
2023-02-24T06:26:30.921Z,5.1
2023-02-24T06:32:06.971Z,5.1
2023-02-24T06:37:43.935Z,5
2023-02-24T06:43:19.313Z,5
2023-02-24T06:48:55.027Z,5
2023-02-24T06:54:31.552Z,5
2023-02-24T07:00:06.415Z,4.9
2023-02-24T07:05:48.999Z,4.9
2023-02-24T07:11:25.954Z,4.5
2023-02-24T07:17:04.952Z,3
2023-02-24T07:22:40.878Z,2.7
2023-02-24T07:28:47.047Z,2.6
2023-02-24T07:34:25.664Z,2.9
2023-02-24T07:40:01.081Z,3
2023-02-24T07:45:36.502Z,3.1
2023-02-24T07:51:13.107Z,3.2
2023-02-24T07:56:52.786Z,3.3
2023-02-24T08:02:32.142Z,3.3
2023-02-24T08:08:12.595Z,3.8
2023-02-24T08:13:57.175Z,3.8
2023-02-24T08:19:53.275Z,4.1
2023-02-24T08:26:22.534Z,4
2023-02-24T08:32:08.909Z,4.3
2023-02-24T08:37:46.486Z,4.7
2023-02-24T08:43:21.948Z,5
2023-02-24T08:49:24.437Z,5.3
2023-02-24T08:55:07.134Z,5.3
2023-02-24T09:00:55.280Z,5.5
2023-02-24T09:06:31.319Z,5.7
2023-02-24T09:12:15.977Z,6
2023-02-24T09:17:56.984Z,6.2
2023-02-24T09:23:35.183Z,6.4
2023-02-24T09:29:11.123Z,6.6
2023-02-24T09:34:59.248Z,6.9
2023-02-24T09:40:35.808Z,7.1
2023-02-24T09:46:17.475Z,7.3
2023-02-24T09:52:01.288Z,7.4
2023-02-24T09:57:50.783Z,7.5
2023-02-24T10:03:47.004Z,7.7
2023-02-24T10:09:22.986Z,8.1
2023-02-24T10:15:01.439Z,8
2023-02-24T10:20:37.026Z,8.2
2023-02-24T10:26:14.370Z,8.6
2023-02-24T10:32:01.660Z,8.6
2023-02-24T10:37:39.079Z,8.5
2023-02-24T10:43:14.973Z,8.6
2023-02-24T10:49:12.202Z,8.7
2023-02-24T10:54:47.880Z,8.8
2023-02-24T11:00:24.106Z,9.1
2023-02-24T11:05:59.072Z,9.1
2023-02-24T11:11:37.191Z,9.4
2023-02-24T11:17:14.361Z,9.5
2023-02-24T11:23:22.902Z,9.7
2023-02-24T11:29:01.005Z,9.5
2023-02-24T11:35:02.597Z,9.7
2023-02-24T11:40:38.428Z,10
2023-02-24T11:46:13.825Z,10.1
2023-02-24T11:51:58.846Z,10.2
2023-02-24T11:57:34.372Z,10.6
2023-02-24T12:03:25.192Z,10.5
2023-02-24T12:09:00.641Z,10.7
2023-02-24T12:14:39.573Z,10.9
2023-02-24T12:20:20.340Z,10.8
2023-02-24T12:25:57.172Z,10.9
2023-02-24T12:31:41.049Z,11.2
2023-02-24T12:37:18.086Z,11.3
2023-02-24T12:42:53.709Z,11.7
2023-02-24T12:48:29.763Z,12.2
2023-02-24T12:54:49.649Z,12.5
2023-02-24T13:00:25.386Z,12.9
2023-02-24T13:06:00.281Z,13.4
2023-02-24T13:11:35.454Z,13.3
2023-02-24T13:17:10.900Z,13.6
2023-02-24T13:22:45.736Z,14.2
2023-02-24T13:28:37.850Z,14.4
2023-02-24T13:34:32.488Z,14.9
2023-02-24T13:40:23.445Z,15.5
2023-02-24T13:45:59.046Z,15.9
2023-02-24T13:51:36.364Z,16.8
2023-02-24T13:57:12.011Z,18.3
2023-02-24T14:02:58.551Z,22
2023-02-24T14:08:35.528Z,26.6
2023-02-24T14:14:15.298Z,28
2023-02-24T14:19:50.446Z,28.4
2023-02-24T14:25:26.570Z,27.3
2023-02-24T14:31:02.878Z,28.8
2023-02-24T14:36:53.886Z,28.3
2023-02-24T14:43:29.770Z,28.9
2023-02-24T14:49:07.312Z,28.2
2023-02-24T14:54:42.929Z,28.6
2023-02-24T15:00:23.341Z,29.3
2023-02-24T15:06:20.971Z,29.1
2023-02-24T15:11:59.612Z,29.9
2023-02-24T15:17:34.824Z,28.4
2023-02-24T15:23:38.866Z,22.9
2023-02-24T15:29:16.127Z,21.7
2023-02-24T15:34:51.462Z,21.2
2023-02-24T15:40:30.306Z,22.7
2023-02-24T15:46:06.551Z,20.2
2023-02-24T15:51:41.687Z,18.4
2023-02-24T15:57:23.321Z,15.5
2023-02-24T16:03:18.422Z,14.3
2023-02-24T16:09:03.963Z,13.4
2023-02-24T16:15:14.526Z,12.7
2023-02-24T16:21:23.508Z,12.3
2023-02-24T16:27:12.689Z,12.2
2023-02-24T16:32:56.476Z,11.7
2023-02-24T16:38:41.554Z,11.4
2023-02-24T16:44:26.278Z,11.2
2023-02-24T16:50:07.345Z,11.1
2023-02-24T16:55:48.389Z,11
2023-02-24T17:01:33.285Z,10.7
2023-02-24T17:07:11.118Z,10.6
2023-02-24T17:13:01.543Z,10.4
2023-02-24T17:18:43.163Z,10.2
2023-02-24T17:24:28.457Z,10
2023-02-24T17:30:04.044Z,9.8
2023-02-24T17:36:01.809Z,9.7
2023-02-24T17:41:44.476Z,9.6
2023-02-24T17:47:41.549Z,9.5
2023-02-24T17:53:17.064Z,9.2
2023-02-24T17:58:53.811Z,9
2023-02-24T18:04:33.030Z,8.8
2023-02-24T18:10:08.262Z,9.7
2023-02-24T18:15:50.470Z,10.3
2023-02-24T18:21:43.996Z,10.4
2023-02-24T18:27:19.558Z,10.5
2023-02-24T18:33:36.681Z,10.5
2023-02-24T18:39:57.370Z,10.5
2023-02-24T18:45:34.141Z,10.5
2023-02-24T18:51:10.792Z,10.4
2023-02-24T18:56:46.000Z,10.4
2023-02-24T19:02:21.575Z,10.4
2023-02-24T19:08:01.090Z,10.5
2023-02-24T19:13:36.124Z,10.4
2023-02-24T19:19:11.749Z,10.2
2023-02-24T19:24:50.566Z,10.1
2023-02-24T19:30:28.761Z,9.9
2023-02-24T19:36:07.463Z,9.8
2023-02-24T19:41:43.836Z,9.8
2023-02-24T19:47:18.734Z,9.7
2023-02-24T19:53:00.963Z,9.6
2023-02-24T20:00:32.660Z,9.5
2023-02-24T20:06:14.266Z,9.5
2023-02-24T20:12:28.409Z,9.4
2023-02-24T20:18:25.432Z,9.3
2023-02-24T20:24:47.344Z,9.1
2023-02-24T20:30:22.164Z,9
2023-02-24T20:35:57.150Z,9
2023-02-24T20:41:46.747Z,8.9
2023-02-24T20:47:21.966Z,8.9
2023-02-24T20:53:02.444Z,8.8
2023-02-24T20:58:44.977Z,8.9
2023-02-24T21:04:20.977Z,8.9
2023-02-24T21:09:57.467Z,8.8
2023-02-24T21:16:04.602Z,8.7
2023-02-24T21:21:45.993Z,8.6
2023-02-24T21:27:33.302Z,8.6
2023-02-24T21:33:08.392Z,8.6
2023-02-24T21:38:54.678Z,8.5
2023-02-24T21:44:44.765Z,8.3
2023-02-24T21:50:29.276Z,8.2
2023-02-24T21:56:11.083Z,8.1
2023-02-24T22:01:55.133Z,8.1
2023-02-24T22:07:31.671Z,8
2023-02-24T22:13:12.373Z,7.9
2023-02-24T22:19:16.050Z,7.8
2023-02-24T22:25:18.581Z,7.8
2023-02-24T22:31:00.723Z,7.8
2023-02-24T22:36:40.116Z,7.7
2023-02-24T22:42:24.343Z,7.7
2023-02-24T22:48:15.790Z,7.7
2023-02-24T22:55:23.539Z,7.7
2023-02-24T23:00:58.616Z,7.5
2023-02-24T23:06:35.516Z,7.4
2023-02-24T23:12:12.106Z,7.3
2023-02-24T23:18:16.764Z,7.2
2023-02-24T23:23:53.068Z,7.2
2023-02-24T23:29:29.202Z,7.2
2023-02-24T23:35:04.421Z,7.2
2023-02-24T23:40:49.845Z,7.1
2023-02-24T23:46:47.117Z,7.1
2023-02-24T23:52:43.187Z,7.1
2023-02-24T23:58:38.916Z,7.1
